Edgar B. Speer — WDH7562 — position and weather

sailwx.info

Track history (hours):
 
Tides and Currents Weather Stations Pressure Air Temp Water Temp Dewpoint Dewpoint Depression Visibility Wind Speed Wind Dir Waves Ship Positions

Edgar B. Speer

Owner: Great Lakes Fleet, Inc., Homewood, IL. More information available from US FCC via Universal Licensing System and Coast Guard Vessel Documentation Center.

Last reported at 2018-Jul-22 03:00 UTC. Time now 2018-Jul-22 04:25 UTC.
Position N 47°30' W 088°18'.

Wind from 030 at 5 knots

Barometer 1019.6 mb
Air temperature 11.6 ° C

Date/timePositionNaut miles runAvg speedWind from/ knotsBaromVisibWave heightAir tempDewpointWater temp
2018-Jul-22 03:00N 47°30' W 088°18'1212.2 030 / 51019.6 11.6
2018-Jul-22 02:00N 47°30' W 088°00'3712.3 020 / 171018.9 8.8
2018-Jul-21 23:00N 47°24' W 087°06'4113.6 010 / 171016.9 7.7
2018-Jul-21 20:00N 47°06' W 086°12'10 5.1 020 / 191014.8 5.4 10.5
2018-Jul-21 18:00N 47°00' W 086°00'2020.5 040 / 181013.5 12.2
2018-Jul-21 17:00N 47°00' W 085°30'8 8.2 040 / 151013.2 12.7
2018-Jul-21 16:00N 47°00' W 085°18'1010.2 030 / 101013.2 12.2
2018-Jul-21 15:00N 46°54' W 085°30'8 8.2 030 / 191013.2 13.8
2018-Jul-21 14:00N 46°54' W 085°18'31 7.6 020 / 141012.5 13.3
2018-Jul-21 10:00N 46°36' W 084°42'7 7.3 070 / 171010.810.8 18.8
2018-Jul-21 09:00N 46°30' W 084°36'8 8.3 080 / 131010.4 18.8
2018-Jul-21 08:00N 46°30' W 084°24'4 2.1 090 / 141010.8 19.4
2018-Jul-21 06:00N 46°30' W 084°18'1312.7 090 / 61011.1 19.4
2018-Jul-21 05:00N 46°18' W 084°12'4 4.1 080 / 121011.8 18.8
2018-Jul-21 04:00N 46°18' W 084°06'55 7.9 130 / 91011.1 20.5
2018-Jul-20 21:00N 45°42' W 085°06'3310.8 060 / 261008.110.8 21.1
2018-Jul-20 18:00N 45°12' W 085°24'7 7.3 110 / 121007.4 23.8
2018-Jul-20 17:00N 45°06' W 085°30'2222.0 130 / 171007.4 23.3
2018-Jul-20 16:00N 45°00' W 086°00'2914.7 130 / 221006.7 23.3
2018-Jul-20 14:00N 44°36' W 086°24'3115.6 130 / 251007.7 19.4
2018-Jul-20 12:00N 44°06' W 086°36'1312.8 120 / 241006.4 18.3
2018-Jul-20 11:00N 43°54' W 086°42'5611.1 130 / 261006.7 19.4
2018-Jul-20 06:00N 43°00' W 087°00'3636.0 150 / 271008.1 23.3
2018-Jul-20 05:00N 42°24' W 087°00'6 6.0 150 / 271008.8 23.8
2018-Jul-20 04:00N 42°18' W 087°00'7 7.5 140 / 231009.4 23.8
2018-Jul-20 03:00N 42°12' W 087°06'1312.8 150 / 221010.8 23.8
2018-Jul-20 02:00N 42°00' W 087°12'24 2.0 150 / 211010.8 23.8
2018-Jul-19 14:00N 41°36' W 087°18'0 0.0 150 / 61016.5 24.4
2018-Jul-19 12:00N 41°36' W 087°18'24 6.1 150 / 61017.2 19.4
2018-Jul-19 08:00N 42°00' W 087°12'4242.0 090 / 81017.210.8 20.5
2018-Jul-19 07:00N 42°42' W 087°12'12 3.0 110 / 51017.6 21.6
2018-Jul-19 03:00N 42°54' W 087°12'1918.5 070 / 131018.6 19.9
2018-Jul-19 02:00N 43°12' W 087°06'2612.8 060 / 71018.6 19.9
2018-Jul-19 00:00N 43°36' W 086°54'49 9.9 030 / 51018.610.8 21.1
2018-Jul-18 19:00N 44°18' W 086°18'8514.2 099 1020.6 19.9
2018-Jul-18 13:00N 45°42' W 086°00'83 7.6 310 / 111022.3 14.4
2018-Jul-18 02:00N 46°18' W 084°12'43 5.4 320 / 51019.6 12.2
2018-Jul-17 18:00N 46°30' W 085°12'6917.2 330 / 141018.6 7.7
2018-Jul-17 14:00N 47°18' W 086°24'3311.0 330 / 171018.2 5.5
2018-Jul-17 11:00N 47°24' W 087°12'1717.1 340 / 181017.610.8 7.2
2018-Jul-17 10:00N 47°36' W 087°30'44 8.9 340 / 211017.210.8 8.3
2018-Jul-17 05:00N 47°18' W 088°30'2424.4 340 / 181015.5 13.3
2018-Jul-17 04:00N 47°18' W 089°06'5313.2 340 / 181014.8 12.7
2018-Jul-17 00:00N 47°18' W 090°24'4113.6 310 / 161014.5 16.1
2018-Jul-16 21:00N 47°00' W 091°18'1010.2 310 / 171014.210.8 17.2
2018-Jul-16 20:00N 46°54' W 091°30'2424.4 300 / 251013.810.8 19.9
2018-Jul-16 19:00N 46°30' W 091°24'4 4.1 290 / 141013.5 19.4
2018-Jul-16 18:00N 46°30' W 091°30'24 2.2 290 / 201014.2 21.6
2018-Jul-16 07:00N 46°42' W 092°00'24 2.6 200 / 101014.5 16.6
2018-Jul-15 22:00N 46°54' W 091°30'1413.7 290 / 181012.810.8 21.6
2018-Jul-15 21:00N 47°00' W 091°12'2914.6 240 / 201012.110.8 21.6
2018-Jul-15 19:00N 47°06' W 090°30'16 8.2 260 / 171011.5 23.3
2018-Jul-15 17:00N 47°06' W 090°06'2525.2 220 / 121012.5 18.3
2018-Jul-15 16:00N 47°12' W 089°30'4110.2 220 / 91012.5 16.6
2018-Jul-15 12:00N 47°30' W 088°36'3618.2 220 / 181013.5 17.2
2018-Jul-15 10:00N 47°30' W 087°42'2110.6 150 / 91013.8 5.4 16.1
2018-Jul-15 08:00N 47°24' W 087°12'3316.5 160 / 41014.810.8 13.8
2018-Jul-15 06:00N 47°30' W 086°24'17 8.5 170 / 101015.9 16.6
2018-Jul-15 04:00N 47°42' W 086°06'4522.5 180 / 111015.9 14.4
2018-Jul-15 02:00N 47°00' W 085°42'5413.6 200 / 31015.9 14.9
2018-Jul-14 22:00N 46°30' W 084°36'24 4.8 340 / 101015.9 20.5
2018-Jul-14 17:00N 46°18' W 084°06'6 6.0 100 / 31016.9 26.6
2018-Jul-14 16:00N 46°12' W 084°06'104 8.0 050 / 31017.6 21.1
2018-Jul-14 03:00N 45°00' W 085°54'1414.1 250 / 81018.2 19.9
2018-Jul-14 02:00N 44°54' W 086°12'15512.9 210 / 151017.9 19.4
2018-Jul-13 14:00N 42°24' W 087°06'3015.2 210 / 101021.3 22.7
2018-Jul-13 12:00N 41°54' W 087°12'19 1.5 190 / 151020.9 22.2
2018-Jul-13 00:00N 41°36' W 087°18'121 7.6 160 / 51020.6 27.7
2018-Jul-12 08:00N 43°36' W 086°54'   140 / 171020.9 5.4 19.9
Track history (hours):
 
Tides and Currents Weather Stations Pressure Air Temp Water Temp Dewpoint Dewpoint Depression Visibility Wind Speed Wind Dir Waves Ship Positions

Edgar B. Speer

Owner: Great Lakes Fleet, Inc., Homewood, IL. More information available from US FCC via Universal Licensing System and Coast Guard Vessel Documentation Center.

Last reported at 2018-Jul-22 03:00 UTC. Time now 2018-Jul-22 04:25 UTC.
Position N 47°30' W 088°18'.

Wind from 030 at 5 knots

Barometer 1019.6 mb
Air temperature 11.6 ° C

Date/timePositionNaut miles runAvg speedWind from/ knotsBaromVisibWave heightAir tempDewpointWater temp
2018-Jul-22 03:00N 47°30' W 088°18'1212.2 030 / 51019.6 11.6
2018-Jul-22 02:00N 47°30' W 088°00'3712.3 020 / 171018.9 8.8
2018-Jul-21 23:00N 47°24' W 087°06'4113.6 010 / 171016.9 7.7
2018-Jul-21 20:00N 47°06' W 086°12'10 5.1 020 / 191014.8 5.4 10.5
2018-Jul-21 18:00N 47°00' W 086°00'2020.5 040 / 181013.5 12.2
2018-Jul-21 17:00N 47°00' W 085°30'8 8.2 040 / 151013.2 12.7
2018-Jul-21 16:00N 47°00' W 085°18'1010.2 030 / 101013.2 12.2
2018-Jul-21 15:00N 46°54' W 085°30'8 8.2 030 / 191013.2 13.8
2018-Jul-21 14:00N 46°54' W 085°18'31 7.6 020 / 141012.5 13.3
2018-Jul-21 10:00N 46°36' W 084°42'7 7.3 070 / 171010.810.8 18.8
2018-Jul-21 09:00N 46°30' W 084°36'8 8.3 080 / 131010.4 18.8
2018-Jul-21 08:00N 46°30' W 084°24'4 2.1 090 / 141010.8 19.4
2018-Jul-21 06:00N 46°30' W 084°18'1312.7 090 / 61011.1 19.4
2018-Jul-21 05:00N 46°18' W 084°12'4 4.1 080 / 121011.8 18.8
2018-Jul-21 04:00N 46°18' W 084°06'55 7.9 130 / 91011.1 20.5
2018-Jul-20 21:00N 45°42' W 085°06'3310.8 060 / 261008.110.8 21.1
2018-Jul-20 18:00N 45°12' W 085°24'7 7.3 110 / 121007.4 23.8
2018-Jul-20 17:00N 45°06' W 085°30'2222.0 130 / 171007.4 23.3
2018-Jul-20 16:00N 45°00' W 086°00'2914.7 130 / 221006.7 23.3
2018-Jul-20 14:00N 44°36' W 086°24'3115.6 130 / 251007.7 19.4
2018-Jul-20 12:00N 44°06' W 086°36'1312.8 120 / 241006.4 18.3
2018-Jul-20 11:00N 43°54' W 086°42'5611.1 130 / 261006.7 19.4
2018-Jul-20 06:00N 43°00' W 087°00'3636.0 150 / 271008.1 23.3
2018-Jul-20 05:00N 42°24' W 087°00'6 6.0 150 / 271008.8 23.8
2018-Jul-20 04:00N 42°18' W 087°00'7 7.5 140 / 231009.4 23.8
2018-Jul-20 03:00N 42°12' W 087°06'1312.8 150 / 221010.8 23.8
2018-Jul-20 02:00N 42°00' W 087°12'24 2.0 150 / 211010.8 23.8
2018-Jul-19 14:00N 41°36' W 087°18'0 0.0 150 / 61016.5 24.4
2018-Jul-19 12:00N 41°36' W 087°18'24 6.1 150 / 61017.2 19.4
2018-Jul-19 08:00N 42°00' W 087°12'4242.0 090 / 81017.210.8 20.5
2018-Jul-19 07:00N 42°42' W 087°12'12 3.0 110 / 51017.6 21.6
2018-Jul-19 03:00N 42°54' W 087°12'1918.5 070 / 131018.6 19.9
2018-Jul-19 02:00N 43°12' W 087°06'2612.8 060 / 71018.6 19.9
2018-Jul-19 00:00N 43°36' W 086°54'49 9.9 030 / 51018.610.8 21.1
2018-Jul-18 19:00N 44°18' W 086°18'8514.2 099 1020.6 19.9
2018-Jul-18 13:00N 45°42' W 086°00'83 7.6 310 / 111022.3 14.4
2018-Jul-18 02:00N 46°18' W 084°12'43 5.4 320 / 51019.6 12.2
2018-Jul-17 18:00N 46°30' W 085°12'6917.2 330 / 141018.6 7.7
2018-Jul-17 14:00N 47°18' W 086°24'3311.0 330 / 171018.2 5.5
2018-Jul-17 11:00N 47°24' W 087°12'1717.1 340 / 181017.610.8 7.2
2018-Jul-17 10:00N 47°36' W 087°30'44 8.9 340 / 211017.210.8 8.3
2018-Jul-17 05:00N 47°18' W 088°30'2424.4 340 / 181015.5 13.3
2018-Jul-17 04:00N 47°18' W 089°06'5313.2 340 / 181014.8 12.7
2018-Jul-17 00:00N 47°18' W 090°24'4113.6 310 / 161014.5 16.1
2018-Jul-16 21:00N 47°00' W 091°18'1010.2 310 / 171014.210.8 17.2
2018-Jul-16 20:00N 46°54' W 091°30'2424.4 300 / 251013.810.8 19.9
2018-Jul-16 19:00N 46°30' W 091°24'4 4.1 290 / 141013.5 19.4
2018-Jul-16 18:00N 46°30' W 091°30'24 2.2 290 / 201014.2 21.6
2018-Jul-16 07:00N 46°42' W 092°00'24 2.6 200 / 101014.5 16.6
2018-Jul-15 22:00N 46°54' W 091°30'1413.7 290 / 181012.810.8 21.6
2018-Jul-15 21:00N 47°00' W 091°12'2914.6 240 / 201012.110.8 21.6
2018-Jul-15 19:00N 47°06' W 090°30'16 8.2 260 / 171011.5 23.3
2018-Jul-15 17:00N 47°06' W 090°06'2525.2 220 / 121012.5 18.3
2018-Jul-15 16:00N 47°12' W 089°30'4110.2 220 / 91012.5 16.6
2018-Jul-15 12:00N 47°30' W 088°36'3618.2 220 / 181013.5 17.2
2018-Jul-15 10:00N 47°30' W 087°42'2110.6 150 / 91013.8 5.4 16.1
2018-Jul-15 08:00N 47°24' W 087°12'3316.5 160 / 41014.810.8 13.8
2018-Jul-15 06:00N 47°30' W 086°24'17 8.5 170 / 101015.9 16.6
2018-Jul-15 04:00N 47°42' W 086°06'4522.5 180 / 111015.9 14.4
2018-Jul-15 02:00N 47°00' W 085°42'5413.6 200 / 31015.9 14.9
2018-Jul-14 22:00N 46°30' W 084°36'24 4.8 340 / 101015.9 20.5
2018-Jul-14 17:00N 46°18' W 084°06'6 6.0 100 / 31016.9 26.6
2018-Jul-14 16:00N 46°12' W 084°06'104 8.0 050 / 31017.6 21.1
2018-Jul-14 03:00N 45°00' W 085°54'1414.1 250 / 81018.2 19.9
2018-Jul-14 02:00N 44°54' W 086°12'15512.9 210 / 151017.9 19.4
2018-Jul-13 14:00N 42°24' W 087°06'3015.2 210 / 101021.3 22.7
2018-Jul-13 12:00N 41°54' W 087°12'19 1.5 190 / 151020.9 22.2
2018-Jul-13 00:00N 41°36' W 087°18'121 7.6 160 / 51020.6 27.7
2018-Jul-12 08:00N 43°36' W 086°54'   140 / 171020.9 5.4 19.9

Dump ship's entire track history